createdAt,value
2022-09-22T00:00:22.992Z,101305.44
2022-09-22T00:01:33.249Z,101304.41
2022-09-22T00:02:36.239Z,101298.16
2022-09-22T00:03:46.206Z,101297.22
2022-09-22T00:04:49.100Z,101304.94
2022-09-22T00:06:09.253Z,101304.94
2022-09-22T00:07:12.400Z,101304.75
2022-09-22T00:08:15.224Z,101296.84
2022-09-22T00:09:21.546Z,101297.63
2022-09-22T00:10:24.398Z,101299.22
2022-09-22T00:11:30.764Z,101295.63
2022-09-22T00:12:34.158Z,101300.06
2022-09-22T00:13:37.153Z,101298.19
2022-09-22T00:14:40.037Z,101299.03
2022-09-22T00:15:46.474Z,101300.72
2022-09-22T00:16:56.076Z,101295.38
2022-09-22T00:17:59.143Z,101297.06
2022-09-22T00:19:02.377Z,101300.53
2022-09-22T00:20:06.702Z,101300.47
2022-09-22T00:21:17.157Z,101303.84
2022-09-22T00:22:20.220Z,101301.13
2022-09-22T00:23:27.173Z,101299.34
2022-09-22T00:24:31.256Z,101298.44
2022-09-22T00:25:34.880Z,101299.25
2022-09-22T00:26:39.292Z,101299.28
2022-09-22T00:27:42.182Z,101301.78
2022-09-22T00:28:47.447Z,101299.19
2022-09-22T00:29:51.644Z,101305.28
2022-09-22T00:30:54.830Z,101303.59
2022-09-22T00:31:59.615Z,101301.91
2022-09-22T00:33:05.276Z,101299.34
2022-09-22T00:34:13.839Z,101305.50
2022-09-22T00:35:16.819Z,101300.28
2022-09-22T00:36:22.744Z,101303.41
2022-09-22T00:37:25.730Z,101305.13
2022-09-22T00:38:29.403Z,101299.34
2022-09-22T00:39:32.409Z,101304.69
2022-09-22T00:40:37.426Z,101297.22
2022-09-22T00:41:44.949Z,101301.53
2022-09-22T00:42:49.658Z,101294.44
2022-09-22T00:44:21.160Z,101297.59
2022-09-22T00:45:24.516Z,101290.69
2022-09-22T00:46:28.838Z,101289.09
2022-09-22T00:47:43.404Z,101295.28
2022-09-22T00:48:57.820Z,101297.00
2022-09-22T00:50:22.159Z,101290.97
2022-09-22T00:51:29.527Z,101294.09
2022-09-22T00:52:40.756Z,101286.50
2022-09-22T00:53:44.878Z,101291.47
2022-09-22T00:54:52.834Z,101291.47
2022-09-22T00:56:14.299Z,101292.41
2022-09-22T00:57:27.111Z,101289.78
2022-09-22T00:58:42.389Z,101291.66
2022-09-22T00:59:50.584Z,101294.19
2022-09-22T01:00:53.785Z,101285.44
2022-09-22T01:01:56.758Z,101285.53
2022-09-22T01:03:03.606Z,101290.81
2022-09-22T01:04:07.813Z,101282.00
2022-09-22T01:05:11.014Z,101281.91
2022-09-22T01:06:28.108Z,101282.69
2022-09-22T01:07:31.830Z,101282.69
2022-09-22T01:08:37.596Z,101277.25
2022-09-22T01:09:40.636Z,101287.66
2022-09-22T01:10:44.688Z,101283.16
2022-09-22T01:11:47.908Z,101289.16
2022-09-22T01:13:39.383Z,101285.44
2022-09-22T01:15:12.423Z,101290.47
2022-09-22T01:17:09.503Z,101289.31
2022-09-22T01:19:31.739Z,101290.00
2022-09-22T01:21:33.804Z,101296.75
2022-09-22T01:23:00.577Z,101294.81
2022-09-22T01:24:22.658Z,101289.44
2022-09-22T01:25:55.764Z,101292.00
2022-09-22T01:27:28.374Z,101298.03
2022-09-22T01:29:11.249Z,101298.81
2022-09-22T01:30:22.989Z,101299.66
2022-09-22T01:32:18.317Z,101301.00
2022-09-22T01:33:45.794Z,101301.38
2022-09-22T01:35:27.852Z,101299.81
2022-09-22T01:36:52.656Z,101298.97
2022-09-22T01:38:23.110Z,101298.28
2022-09-22T01:39:45.725Z,101290.56
2022-09-22T01:41:09.687Z,101299.34
2022-09-22T01:42:29.620Z,101296.88
2022-09-22T01:43:47.967Z,101297.06
2022-09-22T01:45:08.790Z,101294.69
2022-09-22T01:46:25.821Z,101302.72
2022-09-22T01:47:45.061Z,101300.47
2022-09-22T01:48:52.320Z,101297.06
2022-09-22T01:50:03.100Z,101307.66
2022-09-22T01:51:12.321Z,101312.03
2022-09-22T01:52:27.062Z,101303.31
2022-09-22T01:53:52.373Z,101300.75
2022-09-22T01:55:06.915Z,101312.22
2022-09-22T01:56:13.043Z,101304.44
2022-09-22T01:57:47.238Z,101304.53
2022-09-22T01:58:57.923Z,101304.66
2022-09-22T02:00:05.867Z,101302.25
2022-09-22T02:01:19.697Z,101297.94
2022-09-22T02:02:34.151Z,101303.25
2022-09-22T02:04:29.343Z,101298.16
2022-09-22T02:05:50.387Z,101298.16
2022-09-22T02:06:58.911Z,101295.50
2022-09-22T02:08:10.080Z,101298.06
2022-09-22T02:09:18.900Z,101297.13
2022-09-22T02:10:32.210Z,101300.63
2022-09-22T02:11:35.614Z,101303.25
2022-09-22T02:12:39.538Z,101296.28
2022-09-22T02:13:44.202Z,101299.84
2022-09-22T02:14:47.631Z,101301.63
2022-09-22T02:16:02.823Z,101301.63
2022-09-22T02:17:05.751Z,101300.78
2022-09-22T02:18:20.031Z,101308.31
2022-09-22T02:19:50.628Z,101303.06
2022-09-22T02:20:53.699Z,101306.75
2022-09-22T02:21:56.978Z,101303.06
2022-09-22T02:22:59.786Z,101297.81
2022-09-22T02:24:02.805Z,101296.03
2022-09-22T02:25:06.694Z,101300.31
2022-09-22T02:26:10.876Z,101296.91
2022-09-22T02:27:35.532Z,101304.03
2022-09-22T02:28:41.441Z,101296.22
2022-09-22T02:29:55.029Z,101291.94
2022-09-22T02:31:19.041Z,101289.34
2022-09-22T02:32:24.038Z,101292.88
2022-09-22T02:33:28.435Z,101295.53
2022-09-22T02:34:31.996Z,101298.22
2022-09-22T02:35:39.301Z,101298.31
2022-09-22T02:37:03.491Z,101300.09
2022-09-22T02:38:23.786Z,101299.03
2022-09-22T02:40:07.286Z,101301.00
2022-09-22T02:41:40.733Z,101295.81
2022-09-22T02:42:56.434Z,101300.63
2022-09-22T02:44:05.728Z,101296.28
2022-09-22T02:45:29.608Z,101295.50
2022-09-22T02:46:48.892Z,101298.91
2022-09-22T02:47:53.331Z,101306.81
2022-09-22T02:49:05.064Z,101306.81
2022-09-22T02:50:12.015Z,101306.03
2022-09-22T02:51:16.395Z,101295.53
2022-09-22T02:52:23.321Z,101300.88
2022-09-22T02:53:26.179Z,101298.31
2022-09-22T02:54:29.297Z,101292.19
2022-09-22T02:55:32.348Z,101297.47
2022-09-22T02:56:35.745Z,101295.72
2022-09-22T02:57:39.080Z,101289.56
2022-09-22T02:58:41.978Z,101300.16
2022-09-22T02:59:44.836Z,101302.72
2022-09-22T03:00:47.759Z,101301.78
2022-09-22T03:01:50.646Z,101299.09
2022-09-22T03:02:53.713Z,101290.34
2022-09-22T03:03:56.585Z,101299.91
2022-09-22T03:04:59.596Z,101298.16
2022-09-22T03:06:02.639Z,101301.66
2022-09-22T03:07:07.063Z,101299.06
2022-09-22T03:08:10.021Z,101299.06
2022-09-22T03:09:13.100Z,101296.44
2022-09-22T03:10:16.323Z,101293.81
2022-09-22T03:11:19.224Z,101303.41
2022-09-22T03:12:22.149Z,101302.53
2022-09-22T03:13:25.004Z,101298.16
2022-09-22T03:14:27.953Z,101305.25
2022-09-22T03:15:31.266Z,101308.72
2022-09-22T03:16:34.867Z,101303.41
2022-09-22T03:17:38.437Z,101305.16
2022-09-22T03:18:41.253Z,101291.13
2022-09-22T03:19:44.148Z,101305.44
2022-09-22T03:20:47.184Z,101304.59
2022-09-22T03:21:50.261Z,101301.88
2022-09-22T03:22:53.267Z,101302.88
2022-09-22T03:23:56.135Z,101304.63
2022-09-22T03:24:59.465Z,101306.09
2022-09-22T03:26:02.581Z,101302.75
2022-09-22T03:27:05.597Z,101308.06
2022-09-22T03:28:08.583Z,101306.22
2022-09-22T03:29:11.549Z,101308.81
2022-09-22T03:30:15.064Z,101305.34
2022-09-22T03:31:17.882Z,101307.94
2022-09-22T03:32:22.348Z,101301.88
2022-09-22T03:33:25.588Z,101308.84
2022-09-22T03:34:28.784Z,101304.50
2022-09-22T03:35:31.756Z,101310.69
2022-09-22T03:36:35.196Z,101305.44
2022-09-22T03:37:38.109Z,101299.28
2022-09-22T03:38:41.157Z,101304.63
2022-09-22T03:39:44.273Z,101305.53
2022-09-22T03:40:52.403Z,101302.00
2022-09-22T03:41:55.477Z,101305.47
2022-09-22T03:42:58.516Z,101308.94
2022-09-22T03:44:01.782Z,101308.06
2022-09-22T03:45:05.231Z,101308.06
2022-09-22T03:46:08.174Z,101302.72
2022-09-22T03:47:11.201Z,101300.97
2022-09-22T03:48:14.259Z,101301.88
2022-09-22T03:49:17.299Z,101300.09
2022-09-22T03:50:21.130Z,101308.81
2022-09-22T03:51:24.176Z,101311.47
2022-09-22T03:52:27.413Z,101303.47
2022-09-22T03:53:30.302Z,101308.81
2022-09-22T03:54:33.512Z,101305.22
2022-09-22T03:55:37.253Z,101306.94
2022-09-22T03:56:40.163Z,101308.63
2022-09-22T03:57:43.876Z,101306.00
2022-09-22T03:58:46.699Z,101307.69
2022-09-22T03:59:49.870Z,101299.84
2022-09-22T04:00:52.736Z,101303.41
2022-09-22T04:01:58.238Z,101306.94
2022-09-22T04:03:01.422Z,101313.94
2022-09-22T04:04:04.767Z,101309.56
2022-09-22T04:05:08.372Z,101308.72
2022-09-22T04:06:11.727Z,101309.56
2022-09-22T04:07:14.627Z,101316.59
2022-09-22T04:08:18.138Z,101316.56
2022-09-22T04:09:21.122Z,101308.72
2022-09-22T04:10:23.935Z,101315.81
2022-09-22T04:11:27.457Z,101319.31
2022-09-22T04:12:30.609Z,101313.22
2022-09-22T04:13:34.338Z,101314.06
2022-09-22T04:14:37.375Z,101320.31
2022-09-22T04:15:40.675Z,101315.06
2022-09-22T04:16:43.883Z,101311.59
2022-09-22T04:17:47.189Z,101316.00
2022-09-22T04:18:50.302Z,101316.13
2022-09-22T04:19:55.295Z,101315.22
2022-09-22T04:20:59.181Z,101319.72
2022-09-22T04:22:04.118Z,101319.72
2022-09-22T04:23:07.291Z,101322.34
2022-09-22T04:24:11.440Z,101319.78
2022-09-22T04:25:14.348Z,101322.38
2022-09-22T04:26:17.298Z,101315.41
2022-09-22T04:27:21.048Z,101320.78
2022-09-22T04:28:24.275Z,101319.94
2022-09-22T04:29:27.108Z,101319.06
2022-09-22T04:30:30.821Z,101323.41
2022-09-22T04:31:33.591Z,101323.34
2022-09-22T04:32:36.484Z,101318.16
2022-09-22T04:33:39.338Z,101324.34
2022-09-22T04:34:43.349Z,101320.00
2022-09-22T04:35:48.173Z,101320.84
2022-09-22T04:36:51.372Z,101318.22
2022-09-22T04:37:55.691Z,101319.19
2022-09-22T04:39:03.230Z,101322.78
2022-09-22T04:40:06.874Z,101316.69
2022-09-22T04:41:09.925Z,101321.94
2022-09-22T04:42:12.726Z,101321.94
2022-09-22T04:43:16.059Z,101326.38
2022-09-22T04:44:19.106Z,101325.56
2022-09-22T04:45:22.413Z,101329.06
2022-09-22T04:46:26.958Z,101325.56
2022-09-22T04:47:30.484Z,101324.75
2022-09-22T04:48:33.337Z,101320.28
2022-09-22T04:49:36.235Z,101322.97
2022-09-22T04:50:39.240Z,101329.13
2022-09-22T04:51:42.209Z,101324.75
2022-09-22T04:52:52.332Z,101324.34
2022-09-22T04:53:55.192Z,101322.75
2022-09-22T04:54:58.192Z,101329.41
2022-09-22T04:56:01.466Z,101325.84
2022-09-22T04:57:04.580Z,101317.03
2022-09-22T04:58:07.855Z,101325.84
2022-09-22T04:59:11.853Z,101328.47
2022-09-22T05:00:15.184Z,101321.94
2022-09-22T05:01:18.206Z,101326.41
2022-09-22T05:02:21.213Z,101324.75
2022-09-22T05:03:24.199Z,101322.13
2022-09-22T05:04:27.347Z,101328.25
2022-09-22T05:05:30.333Z,101325.56
2022-09-22T05:06:33.315Z,101323.91
2022-09-22T05:07:36.326Z,101330.03
2022-09-22T05:08:39.233Z,101323.16
2022-09-22T05:09:42.175Z,101332.00
2022-09-22T05:10:46.129Z,101329.28
2022-09-22T05:11:49.051Z,101326.78
2022-09-22T05:12:53.709Z,101328.56
2022-09-22T05:13:57.908Z,101329.53
2022-09-22T05:15:00.886Z,101336.59
2022-09-22T05:16:05.774Z,101340.13
2022-09-22T05:17:08.676Z,101331.25
2022-09-22T05:18:11.783Z,101328.81
2022-09-22T05:19:14.679Z,101328.00
2022-09-22T05:20:19.597Z,101338.50
2022-09-22T05:21:22.617Z,101336.56
2022-09-22T05:22:25.423Z,101332.03
2022-09-22T05:23:28.748Z,101333.69
2022-09-22T05:24:32.448Z,101337.25
2022-09-22T05:25:35.487Z,101337.19
2022-09-22T05:26:38.682Z,101339.84
2022-09-22T05:27:54.996Z,101342.56
2022-09-22T05:28:58.200Z,101338.19
2022-09-22T05:30:01.075Z,101339.16
2022-09-22T05:31:04.837Z,101339.28
2022-09-22T05:32:07.748Z,101340.13
2022-09-22T05:33:10.722Z,101338.47
2022-09-22T05:34:13.820Z,101336.84
2022-09-22T05:35:23.537Z,101342.13
2022-09-22T05:36:26.502Z,101330.31
2022-09-22T05:37:29.734Z,101334.06
2022-09-22T05:38:32.577Z,101334.09
2022-09-22T05:39:35.394Z,101327.19
2022-09-22T05:40:38.633Z,101330.75
2022-09-22T05:41:41.831Z,101336.16
2022-09-22T05:42:46.945Z,101337.94
2022-09-22T05:43:49.827Z,101332.56
2022-09-22T05:44:52.862Z,101339.75
2022-09-22T05:45:56.042Z,101339.84
2022-09-22T05:46:59.095Z,101335.53
2022-09-22T05:48:02.197Z,101342.75
2022-09-22T05:49:04.976Z,101339.44
2022-09-22T05:50:10.143Z,101337.88
2022-09-22T05:51:12.937Z,101341.47
2022-09-22T05:52:15.986Z,101337.03
2022-09-22T05:53:19.026Z,101335.72
2022-09-22T05:54:23.490Z,101340.16
2022-09-22T05:55:26.783Z,101329.72
2022-09-22T05:56:32.264Z,101332.44
2022-09-22T05:57:35.462Z,101330.88
2022-09-22T05:58:38.582Z,101337.91
2022-09-22T05:59:41.447Z,101331.66
2022-09-22T06:00:44.368Z,101325.56
2022-09-22T06:01:47.729Z,101326.41
2022-09-22T06:02:50.666Z,101327.47
2022-09-22T06:03:54.070Z,101330.28
2022-09-22T06:04:57.418Z,101329.38
2022-09-22T06:06:00.344Z,101330.47
2022-09-22T06:07:03.275Z,101327.97
2022-09-22T06:08:07.000Z,101332.06
2022-09-22T06:09:09.938Z,101332.97
2022-09-22T06:10:12.910Z,101335.63
2022-09-22T06:11:15.728Z,101339.19
2022-09-22T06:12:19.196Z,101328.72
2022-09-22T06:13:22.087Z,101336.69
2022-09-22T06:14:25.032Z,101339.47
2022-09-22T06:15:28.742Z,101335.03
2022-09-22T06:16:31.990Z,101338.13
2022-09-22T06:17:34.866Z,101335.28
2022-09-22T06:18:37.786Z,101339.75
2022-09-22T06:19:41.745Z,101336.25
2022-09-22T06:20:45.232Z,101339.84
2022-09-22T06:21:48.245Z,101345.19
2022-09-22T06:22:51.281Z,101341.09
2022-09-22T06:23:54.301Z,101345.63
2022-09-22T06:24:57.587Z,101342.16
2022-09-22T06:26:00.893Z,101343.94
2022-09-22T06:27:03.821Z,101351.06
2022-09-22T06:28:09.750Z,101350.19
2022-09-22T06:29:12.529Z,101345.84
2022-09-22T06:30:15.347Z,101352.81
2022-09-22T06:31:18.403Z,101349.34
2022-09-22T06:32:21.371Z,101350.44
2022-09-22T06:33:24.221Z,101347.63
2022-09-22T06:34:27.354Z,101347.63
2022-09-22T06:35:36.705Z,101344.22
2022-09-22T06:36:45.314Z,101349.59
2022-09-22T06:37:56.389Z,101347.81
2022-09-22T06:39:00.491Z,101344.31
2022-09-22T06:40:04.696Z,101346.09
2022-09-22T06:41:08.382Z,101346.22
2022-09-22T06:42:11.403Z,101341.97
2022-09-22T06:43:22.613Z,101340.25
2022-09-22T06:44:25.840Z,101346.59
2022-09-22T06:45:30.372Z,101341.44
2022-09-22T06:46:34.924Z,101338.88
2022-09-22T06:47:38.161Z,101340.69
2022-09-22T06:48:41.043Z,101346.91
2022-09-22T06:49:44.044Z,101347.84
2022-09-22T06:50:53.623Z,101352.25
2022-09-22T06:51:56.666Z,101353.13
2022-09-22T06:53:07.322Z,101339.88
2022-09-22T06:54:10.081Z,101345.19
2022-09-22T06:55:12.963Z,101353.19
2022-09-22T06:56:15.873Z,101344.34
2022-09-22T06:57:19.090Z,101345.22
2022-09-22T06:58:22.694Z,101345.19
2022-09-22T06:59:25.898Z,101346.97
2022-09-22T07:00:33.934Z,101344.31
2022-09-22T07:01:37.670Z,101342.53
2022-09-22T07:02:40.683Z,101350.50
2022-09-22T07:03:44.560Z,101339.88
2022-09-22T07:04:48.353Z,101348.72
2022-09-22T07:05:58.406Z,101347.88
2022-09-22T07:07:04.033Z,101351.41
2022-09-22T07:08:07.090Z,101345.19
2022-09-22T07:09:10.295Z,101354.06
2022-09-22T07:10:13.164Z,101347.84
2022-09-22T07:11:23.709Z,101354.94
2022-09-22T07:12:26.841Z,101346.97
2022-09-22T07:13:32.241Z,101350.50
2022-09-22T07:14:35.296Z,101349.63
2022-09-22T07:15:38.202Z,101359.34
2022-09-22T07:16:41.734Z,101358.47
2022-09-22T07:17:44.671Z,101360.22
2022-09-22T07:18:51.261Z,101358.47
2022-09-22T07:19:56.366Z,101364.66
2022-09-22T07:21:22.769Z,101357.59
2022-09-22T07:22:26.909Z,101361.13
2022-09-22T07:23:29.832Z,101354.06
2022-09-22T07:24:32.799Z,101354.94
2022-09-22T07:25:35.986Z,101353.97
2022-09-22T07:26:40.085Z,101350.31
2022-09-22T07:27:43.354Z,101351.97
2022-09-22T07:28:50.370Z,101359.00
2022-09-22T07:29:54.381Z,101366.88
2022-09-22T07:31:08.249Z,101363.97
2022-09-22T07:32:11.187Z,101365.47
2022-09-22T07:33:14.581Z,101360.91
2022-09-22T07:34:18.235Z,101363.63
2022-09-22T07:35:21.449Z,101369.53
2022-09-22T07:36:26.338Z,101362.47
2022-09-22T07:37:33.212Z,101364.88
2022-09-22T07:38:40.709Z,101354.81
2022-09-22T07:39:45.700Z,101357.31
2022-09-22T07:40:53.678Z,101361.34
2022-09-22T07:41:56.655Z,101358.50
2022-09-22T07:42:59.866Z,101357.63
2022-09-22T07:44:23.205Z,101356.66
2022-09-22T07:45:26.086Z,101363.50
2022-09-22T07:46:29.135Z,101364.31
2022-09-22T07:47:50.706Z,101355.53
2022-09-22T07:48:53.511Z,101363.31
2022-09-22T07:49:56.408Z,101358.44
2022-09-22T07:51:00.254Z,101356.31
2022-09-22T07:52:03.514Z,101356.66
2022-09-22T07:53:06.332Z,101358.63
2022-09-22T07:54:09.675Z,101354.63
2022-09-22T07:55:12.535Z,101345.81
2022-09-22T07:56:18.862Z,101339.59
2022-09-22T07:57:21.856Z,101342.53
2022-09-22T07:58:25.914Z,101343.25
2022-09-22T07:59:28.876Z,101343.72
2022-09-22T08:00:33.011Z,101342.69
2022-09-22T08:01:39.795Z,101338.66
2022-09-22T08:02:44.554Z,101331.44
2022-09-22T08:03:48.119Z,101334.19
2022-09-22T08:04:51.004Z,101325.47
2022-09-22T08:06:10.418Z,101333.94
2022-09-22T08:07:15.369Z,101329.28
2022-09-22T08:08:18.376Z,101339.91
2022-09-22T08:09:21.997Z,101333.84
2022-09-22T08:10:26.235Z,101336.50
2022-09-22T08:11:29.495Z,101331.06
2022-09-22T08:12:32.656Z,101332.09
2022-09-22T08:13:36.975Z,101326.56
2022-09-22T08:14:39.906Z,101331.81
2022-09-22T08:15:42.857Z,101329.72
2022-09-22T08:16:46.109Z,101323.25
2022-09-22T08:17:50.998Z,101333.38
2022-09-22T08:18:58.871Z,101333.75
2022-09-22T08:20:03.861Z,101329.88
2022-09-22T08:21:07.977Z,101332.88
2022-09-22T08:22:11.702Z,101335.84
2022-09-22T08:23:14.751Z,101328.81
2022-09-22T08:24:23.637Z,101327.34
2022-09-22T08:25:26.804Z,101339.19
2022-09-22T08:26:29.707Z,101335.88
2022-09-22T08:27:34.583Z,101336.13
2022-09-22T08:28:37.629Z,101342.94
2022-09-22T08:29:40.551Z,101332.53
2022-09-22T08:30:49.661Z,101332.97
2022-09-22T08:31:54.245Z,101338.47
2022-09-22T08:33:00.719Z,101337.78
2022-09-22T08:34:06.057Z,101336.59
2022-09-22T08:35:09.079Z,101338.97
2022-09-22T08:36:12.987Z,101331.44
2022-09-22T08:37:15.910Z,101330.34
2022-09-22T08:38:18.845Z,101327.53
2022-09-22T08:39:22.375Z,101333.16
2022-09-22T08:40:25.258Z,101334.25
2022-09-22T08:41:38.298Z,101331.88
2022-09-22T08:42:43.298Z,101328.06
2022-09-22T08:43:54.426Z,101336.16
2022-09-22T08:45:26.168Z,101333.75
2022-09-22T08:46:44.105Z,101321.28
2022-09-22T08:48:14.429Z,101339.19
2022-09-22T08:50:06.393Z,101330.72
2022-09-22T08:51:39.467Z,101331.84
2022-09-22T08:52:55.465Z,101327.53
2022-09-22T08:54:03.103Z,101329.56
2022-09-22T08:55:19.428Z,101330.66
2022-09-22T08:56:33.538Z,101335.88
2022-09-22T08:58:27.400Z,101319.94
2022-09-22T08:59:55.311Z,101317.50
2022-09-22T09:01:25.380Z,101320.22
2022-09-22T09:03:14.247Z,101320.03
2022-09-22T09:04:42.087Z,101323.06
2022-09-22T09:06:09.267Z,101319.25
2022-09-22T09:07:41.757Z,101315.44
2022-09-22T09:09:14.085Z,101313.50
2022-09-22T09:11:07.331Z,101316.22
2022-09-22T09:12:36.251Z,101315.63
2022-09-22T09:14:04.389Z,101307.44
2022-09-22T09:15:13.918Z,101301.44
2022-09-22T09:16:38.131Z,101303.00
2022-09-22T09:17:46.544Z,101307.03
2022-09-22T09:19:06.701Z,101314.75
2022-09-22T09:20:45.875Z,101312.00
2022-09-22T09:21:55.230Z,101307.00
2022-09-22T09:22:59.772Z,101300.63
2022-09-22T09:25:43.265Z,101306.66
2022-09-22T09:26:49.686Z,101312.06
2022-09-22T09:28:07.827Z,101317.25
2022-09-22T09:29:22.073Z,101315.25
2022-09-22T09:30:25.099Z,101311.16
2022-09-22T09:31:53.300Z,101315.63
2022-09-22T09:33:01.182Z,101316.78
2022-09-22T09:34:14.443Z,101317.38
2022-09-22T09:35:26.709Z,101315.91
2022-09-22T09:37:27.463Z,101319.88
2022-09-22T09:38:40.010Z,101312.28
2022-09-22T09:39:44.725Z,101319.16
2022-09-22T09:41:21.798Z,101314.94
2022-09-22T09:42:33.308Z,101320.44
2022-09-22T09:43:37.382Z,101313.88
2022-09-22T09:44:40.400Z,101318.44
2022-09-22T09:46:09.952Z,101316.72
2022-09-22T09:47:32.683Z,101312.59
2022-09-22T09:49:11.829Z,101303.50
2022-09-22T09:50:16.106Z,101306.53
2022-09-22T09:51:20.075Z,101312.81
2022-09-22T09:52:27.041Z,101306.00
2022-09-22T09:53:42.225Z,101305.44
2022-09-22T09:54:48.072Z,101297.03
2022-09-22T09:55:51.269Z,101291.81
2022-09-22T09:57:16.064Z,101300.19
2022-09-22T09:58:37.447Z,101291.09
2022-09-22T10:00:32.065Z,101298.31
2022-09-22T10:01:35.334Z,101289.91
2022-09-22T10:03:02.960Z,101292.47
2022-09-22T10:04:05.996Z,101289.78
2022-09-22T10:05:37.584Z,101285.97
2022-09-22T10:06:41.834Z,101290.81
2022-09-22T10:07:48.843Z,101290.97
2022-09-22T10:08:53.155Z,101293.56
2022-09-22T10:10:16.507Z,101295.38
2022-09-22T10:11:32.820Z,101300.72
2022-09-22T10:12:35.955Z,101295.41
2022-09-22T10:13:41.029Z,101292.78
2022-09-22T10:14:54.319Z,101298.06
2022-09-22T10:16:22.736Z,101309.34
2022-09-22T10:17:31.149Z,101305.03
2022-09-22T10:18:41.221Z,101302.91
2022-09-22T10:19:44.337Z,101306.94
2022-09-22T10:21:01.224Z,101304.63
2022-09-22T10:22:28.112Z,101304.31
2022-09-22T10:23:34.376Z,101307.91
2022-09-22T10:24:37.700Z,101305.34
2022-09-22T10:25:40.619Z,101299.41
2022-09-22T10:26:57.499Z,101300.88
2022-09-22T10:28:01.659Z,101305.16
2022-09-22T10:29:12.298Z,101293.69
2022-09-22T10:30:22.641Z,101302.22
2022-09-22T10:31:25.453Z,101305.84
2022-09-22T10:32:28.822Z,101299.66
2022-09-22T10:33:33.487Z,101301.66
2022-09-22T10:36:12.062Z,101300.91
2022-09-22T10:37:25.533Z,101305.34
2022-09-22T10:38:29.397Z,101306.16
2022-09-22T10:39:38.577Z,101311.41
2022-09-22T10:40:46.773Z,101306.41
2022-09-22T10:41:50.029Z,101314.53
2022-09-22T10:42:57.744Z,101321.41
2022-09-22T10:46:23.114Z,101320.59
2022-09-22T10:47:36.000Z,101322.97
2022-09-22T10:48:54.018Z,101324.25
2022-09-22T10:50:24.303Z,101319.13
2022-09-22T10:51:55.533Z,101321.00
2022-09-22T10:53:32.587Z,101314.00
2022-09-22T10:54:58.129Z,101312.22
2022-09-22T10:56:37.603Z,101312.13
2022-09-22T10:58:15.236Z,101314.78
2022-09-22T11:00:18.428Z,101312.97
2022-09-22T11:01:36.767Z,101314.00
2022-09-22T11:03:16.982Z,101313.88
2022-09-22T11:04:34.759Z,101306.66
2022-09-22T11:06:51.242Z,101317.34
2022-09-22T11:08:29.056Z,101306.34
2022-09-22T11:10:45.725Z,101306.00
2022-09-22T11:12:19.050Z,101303.81
2022-09-22T11:13:54.150Z,101305.41
2022-09-22T11:15:20.599Z,101308.50
2022-09-22T11:16:35.587Z,101304.66
2022-09-22T11:18:05.223Z,101307.38
2022-09-22T11:19:33.977Z,101313.31
2022-09-22T11:20:45.171Z,101302.72
2022-09-22T11:22:27.503Z,101312.84
2022-09-22T11:24:31.072Z,101307.31
2022-09-22T11:26:04.924Z,101308.03
2022-09-22T11:27:25.056Z,101312.38
2022-09-22T11:28:58.591Z,101305.25
2022-09-22T11:30:20.469Z,101311.34
2022-09-22T11:31:47.197Z,101311.81
2022-09-22T11:33:39.858Z,101315.94
2022-09-22T11:35:09.953Z,101316.19
2022-09-22T11:36:48.073Z,101317.25
2022-09-22T11:38:13.171Z,101321.84
2022-09-22T11:39:25.537Z,101316.59
2022-09-22T11:40:53.783Z,101318.47
2022-09-22T11:42:21.372Z,101318.53
2022-09-22T11:43:59.363Z,101315.06
2022-09-22T11:45:19.471Z,101312.38
2022-09-22T11:46:44.065Z,101315.00
2022-09-22T11:48:07.377Z,101323.81
2022-09-22T11:49:42.694Z,101312.28
2022-09-22T11:51:09.534Z,101319.25
2022-09-22T11:52:43.287Z,101309.50
2022-09-22T11:54:08.934Z,101313.84
2022-09-22T11:55:51.517Z,101306.69
2022-09-22T11:57:01.607Z,101312.84
2022-09-22T11:58:20.627Z,101302.06
2022-09-22T11:59:49.431Z,101302.00
2022-09-22T12:01:13.082Z,101302.81
2022-09-22T12:02:49.032Z,101308.09
2022-09-22T12:04:27.878Z,101306.28
2022-09-22T12:06:03.941Z,101308.88
2022-09-22T12:07:28.701Z,101304.41
2022-09-22T12:09:04.475Z,101303.56
2022-09-22T12:10:26.021Z,101303.53
2022-09-22T12:11:31.484Z,101307.06
2022-09-22T12:12:35.193Z,101304.44
2022-09-22T12:13:46.044Z,101301.75
2022-09-22T12:14:56.684Z,101295.44
2022-09-22T12:16:21.350Z,101295.41
2022-09-22T12:18:10.919Z,101302.44
2022-09-22T12:19:40.444Z,101296.19
2022-09-22T12:21:03.023Z,101288.81
2022-09-22T12:22:44.806Z,101295.75
2022-09-22T12:23:52.191Z,101291.09
2022-09-22T12:24:55.205Z,101287.41
2022-09-22T12:26:08.166Z,101295.41
2022-09-22T12:27:21.125Z,101301.44
2022-09-22T12:28:30.468Z,101292.56
2022-09-22T12:29:33.789Z,101284.69
2022-09-22T12:30:36.615Z,101297.09
2022-09-22T12:31:41.814Z,101298.88
2022-09-22T12:32:45.882Z,101295.13
2022-09-22T12:33:53.804Z,101288.94
2022-09-22T12:34:59.171Z,101292.31
2022-09-22T12:36:03.908Z,101287.91
2022-09-22T12:37:11.380Z,101289.59
2022-09-22T12:38:14.230Z,101291.06
2022-09-22T12:39:32.101Z,101293.63
2022-09-22T12:40:38.123Z,101283.78
2022-09-22T12:42:02.733Z,101283.31
2022-09-22T12:43:06.508Z,101284.84
2022-09-22T12:44:26.763Z,101277.63
2022-09-22T12:45:38.167Z,101280.16
2022-09-22T12:46:43.541Z,101278.28
2022-09-22T12:47:53.320Z,101284.56
2022-09-22T12:48:56.434Z,101279.03
2022-09-22T12:50:06.996Z,101279.81
2022-09-22T12:51:24.765Z,101277.91
2022-09-22T12:52:54.413Z,101286.72
2022-09-22T12:54:22.040Z,101286.91
2022-09-22T12:55:30.512Z,101282.34
2022-09-22T12:56:53.360Z,101281.41
2022-09-22T12:58:02.552Z,101271.66
2022-09-22T12:59:40.134Z,101278.91
2022-09-22T13:00:43.370Z,101275.19
2022-09-22T13:01:46.729Z,101278.63
2022-09-22T13:02:50.420Z,101275.09
2022-09-22T13:04:04.301Z,101271.59
2022-09-22T13:05:27.157Z,101273.47
2022-09-22T13:06:30.061Z,101273.59
2022-09-22T13:07:36.424Z,101268.28
2022-09-22T13:08:39.224Z,101272.72
2022-09-22T13:09:42.149Z,101265.69
2022-09-22T13:11:08.650Z,101268.41
2022-09-22T13:12:12.073Z,101274.59
2022-09-22T13:13:43.776Z,101275.59
2022-09-22T13:15:07.668Z,101270.50
2022-09-22T13:16:16.817Z,101275.78
2022-09-22T13:17:50.406Z,101275.78
2022-09-22T13:18:54.109Z,101273.94
2022-09-22T13:19:57.047Z,101265.25
2022-09-22T13:21:03.468Z,101276.06
2022-09-22T13:22:17.981Z,101269.22
2022-09-22T13:23:21.082Z,101272.84
2022-09-22T13:24:27.510Z,101265.06
2022-09-22T13:25:31.397Z,101273.34
2022-09-22T13:26:41.923Z,101263.78
2022-09-22T13:27:45.584Z,101277.91
2022-09-22T13:29:21.676Z,101270.00
2022-09-22T13:30:24.649Z,101270.78
2022-09-22T13:31:27.723Z,101272.50
2022-09-22T13:32:30.617Z,101269.84
2022-09-22T13:33:35.924Z,101275.13